Time;durP1;ratioP1;P1;durP2;ratioP2;P2;SDS_P1;SDS_P2;PMS_P1;PMS_P2;Temp;Humidity;BMP_temperature;BMP_pressure;BME280_temperature;BME280_humidity;BME280_pressure;Samples;Min_cycle;Max_cycle;Signal;HPM_P1;HPM_P2
2021/06/23 00:00:33;;;;;;;15.68;2.70;;;;;;;;;;354560;148;865054;-59
2021/06/23 00:01:34;;;;;;;14.16;3.01;;;;;;;;;;355247;150;859559;-60
2021/06/23 00:02:36;;;;;;;11.06;2.96;;;;;;;;;;356831;149;864906;-59
2021/06/23 00:03:37;;;;;;;11.39;2.95;;;;;;;;;;362928;145;857332;-59
2021/06/23 00:04:39;;;;;;;13.41;2.79;;;;;;;;;;353864;148;857545;-59
2021/06/23 00:05:41;;;;;;;9.65;3.20;;;;;;;;;;363279;146;857367;-59
2021/06/23 00:06:44;;;;;;;11.91;3.44;;;;;;;;;;356056;150;857425;-59
2021/06/23 00:07:45;;;;;;;12.29;3.21;;;;;;;;;;354873;148;857391;-59
2021/06/23 00:08:47;;;;;;;16.71;3.55;;;;;;;;;;357402;147;858590;-59
2021/06/23 00:09:48;;;;;;;16.14;3.21;;;;;;;;;;364469;146;860619;-59
2021/06/23 00:10:51;;;;;;;17.89;3.57;;;;;;;;;;363640;145;857989;-59
2021/06/23 00:11:55;;;;;;;15.93;4.13;;;;;;;;;;355544;145;858601;-59
2021/06/23 00:13:00;;;;;;;17.74;3.36;;;;;;;;;;361120;147;865687;-60
2021/06/23 00:14:01;;;;;;;18.46;4.68;;;;;;;;;;361857;145;857288;-60
2021/06/23 00:15:03;;;;;;;12.13;3.59;;;;;;;;;;359282;147;865173;-60
2021/06/23 00:16:06;;;;;;;12.89;3.31;;;;;;;;;;362894;145;866816;-60
2021/06/23 00:17:07;;;;;;;15.01;3.47;;;;;;;;;;362937;146;857330;-60
2021/06/23 00:18:09;;;;;;;17.89;3.30;;;;;;;;;;362963;146;857433;-60
2021/06/23 00:19:10;;;;;;;14.66;4.36;;;;;;;;;;362980;148;857244;-60
2021/06/23 00:20:12;;;;;;;14.50;3.83;;;;;;;;;;362929;148;864917;-60
2021/06/23 00:21:14;;;;;;;15.56;3.78;;;;;;;;;;362397;146;864934;-60
2021/06/23 00:22:16;;;;;;;17.74;4.05;;;;;;;;;;367105;146;865855;-60
2021/06/23 00:23:17;;;;;;;19.55;3.88;;;;;;;;;;360423;148;858861;-60
2021/06/23 00:24:19;;;;;;;13.83;3.26;;;;;;;;;;361072;146;857268;-60
2021/06/23 00:25:20;;;;;;;15.29;3.90;;;;;;;;;;360066;148;857168;-60
2021/06/23 00:26:23;;;;;;;11.89;3.55;;;;;;;;;;364222;147;859474;-60
2021/06/23 00:27:25;;;;;;;17.03;3.24;;;;;;;;;;363431;147;859046;-60
2021/06/23 00:28:26;;;;;;;15.31;3.28;;;;;;;;;;360868;146;859702;-59
2021/06/23 00:29:28;;;;;;;17.24;3.88;;;;;;;;;;362470;146;858184;-60
2021/06/23 00:30:31;;;;;;;17.10;3.21;;;;;;;;;;361369;148;858441;-60
2021/06/23 00:31:32;;;;;;;10.49;3.10;;;;;;;;;;361319;146;865003;-58
2021/06/23 00:32:34;;;;;;;23.29;3.66;;;;;;;;;;362712;146;859236;-59
2021/06/23 00:33:36;;;;;;;11.62;3.61;;;;;;;;;;362041;145;865299;-59
2021/06/23 00:34:37;;;;;;;14.23;3.72;;;;;;;;;;353975;149;857919;-59
2021/06/23 00:35:39;;;;;;;16.64;3.86;;;;;;;;;;357204;147;857258;-59
2021/06/23 00:36:42;;;;;;;8.80;3.39;;;;;;;;;;363093;148;857394;-59
2021/06/23 00:37:44;;;;;;;16.38;3.50;;;;;;;;;;362440;147;859298;-59
2021/06/23 00:38:45;;;;;;;11.09;3.31;;;;;;;;;;362175;147;857392;-58
2021/06/23 00:39:47;;;;;;;17.78;4.01;;;;;;;;;;362277;147;857868;-59
2021/06/23 00:40:50;;;;;;;18.72;4.06;;;;;;;;;;358444;148;859196;-59
2021/06/23 00:41:52;;;;;;;15.44;4.20;;;;;;;;;;358270;148;857152;-59
2021/06/23 00:42:53;;;;;;;13.04;3.78;;;;;;;;;;363261;145;865033;-59
2021/06/23 00:43:55;;;;;;;11.14;3.79;;;;;;;;;;356113;147;858571;-58
2021/06/23 00:44:57;;;;;;;17.99;3.73;;;;;;;;;;358358;146;859969;-58
2021/06/23 00:45:58;;;;;;;12.39;3.45;;;;;;;;;;355650;148;865868;-59
2021/06/23 00:47:00;;;;;;;11.51;3.01;;;;;;;;;;356773;151;857782;-59
2021/06/23 00:48:07;;;;;;;14.24;3.72;;;;;;;;;;356405;147;858579;-59
2021/06/23 00:49:05;;;;;;;11.68;3.29;;;;;;;;;;355099;148;857337;-59
2021/06/23 00:50:09;;;;;;;11.88;3.62;;;;;;;;;;354464;148;858349;-59
2021/06/23 00:51:10;;;;;;;8.85;3.63;;;;;;;;;;359302;145;865075;-59
2021/06/23 00:52:12;;;;;;;14.09;3.41;;;;;;;;;;357514;148;859927;-59
2021/06/23 00:53:13;;;;;;;12.51;3.27;;;;;;;;;;356565;146;858131;-59
2021/06/23 00:54:15;;;;;;;12.40;3.17;;;;;;;;;;363460;145;857402;-59
2021/06/23 00:55:23;;;;;;;20.05;3.49;;;;;;;;;;363091;145;864918;-59
2021/06/23 00:56:27;;;;;;;17.04;3.69;;;;;;;;;;351359;150;857970;-58
2021/06/23 00:57:28;;;;;;;14.09;3.61;;;;;;;;;;352167;151;860226;-59
2021/06/23 00:58:30;;;;;;;14.36;3.34;;;;;;;;;;359520;147;857302;-58
2021/06/23 00:59:32;;;;;;;10.16;2.96;;;;;;;;;;356783;149;857308;-59
2021/06/23 01:00:34;;;;;;;16.28;3.37;;;;;;;;;;362795;148;857313;-59
2021/06/23 01:01:37;;;;;;;12.26;3.56;;;;;;;;;;362784;147;857301;-59
2021/06/23 01:02:38;;;;;;;21.31;4.16;;;;;;;;;;362426;146;867446;-59
2021/06/23 01:03:40;;;;;;;12.34;3.85;;;;;;;;;;355251;147;857373;-59
2021/06/23 01:04:41;;;;;;;12.96;3.49;;;;;;;;;;357991;148;857704;-59
2021/06/23 01:05:43;;;;;;;8.94;3.34;;;;;;;;;;359530;145;860210;-59
2021/06/23 01:06:46;;;;;;;10.87;3.30;;;;;;;;;;356726;147;857585;-58
2021/06/23 01:07:48;;;;;;;14.05;3.43;;;;;;;;;;357736;148;866273;-59
2021/06/23 01:08:50;;;;;;;15.47;3.89;;;;;;;;;;360905;148;857415;-59
2021/06/23 01:09:53;;;;;;;16.37;3.68;;;;;;;;;;355461;148;865762;-58
2021/06/23 01:10:55;;;;;;;13.68;3.76;;;;;;;;;;353221;148;858285;-58
2021/06/23 01:12:04;;;;;;;7.56;2.93;;;;;;;;;;347899;148;857186;-59
2021/06/23 01:13:24;;;;;;;8.86;3.56;;;;;;;;;;354422;151;858471;-59
2021/06/23 01:14:26;;;;;;;;;;;;;;;;;;353052;153;856539;-59
2021/06/23 01:15:28;;;;;;;12.73;3.09;;;;;;;;;;358222;148;857259;-59
2021/06/23 01:16:31;;;;;;;15.16;3.42;;;;;;;;;;362179;147;858969;-59
2021/06/23 01:17:34;;;;;;;12.13;4.06;;;;;;;;;;362233;145;858095;-58
2021/06/23 01:18:36;;;;;;;11.57;3.19;;;;;;;;;;355527;149;859028;-59
2021/06/23 01:19:40;;;;;;;12.89;3.17;;;;;;;;;;360377;145;864886;-60
2021/06/23 01:20:44;;;;;;;11.35;2.89;;;;;;;;;;361348;145;857576;-58
2021/06/23 01:21:45;;;;;;;11.98;3.26;;;;;;;;;;362793;145;857574;-58
2021/06/23 01:22:47;;;;;;;12.82;3.22;;;;;;;;;;356087;148;857338;-58
2021/06/23 01:23:48;;;;;;;9.32;3.18;;;;;;;;;;354005;149;857890;-58
2021/06/23 01:24:50;;;;;;;14.75;3.51;;;;;;;;;;364133;147;857206;-58
2021/06/23 01:25:51;;;;;;;8.58;3.11;;;;;;;;;;364978;146;857213;-58
2021/06/23 01:26:54;;;;;;;13.78;3.14;;;;;;;;;;357856;147;864987;-58
2021/06/23 01:27:56;;;;;;;12.47;3.48;;;;;;;;;;360217;148;857150;-58
2021/06/23 01:28:58;;;;;;;7.76;3.12;;;;;;;;;;355264;147;857279;-58
2021/06/23 01:29:59;;;;;;;14.16;3.03;;;;;;;;;;354418;148;865573;-58
2021/06/23 01:31:01;;;;;;;10.87;3.24;;;;;;;;;;356572;148;858276;-58
2021/06/23 01:32:03;;;;;;;10.79;3.46;;;;;;;;;;355080;148;865751;-59
2021/06/23 01:33:05;;;;;;;15.30;3.35;;;;;;;;;;365337;146;867156;-58
2021/06/23 01:34:07;;;;;;;10.01;2.93;;;;;;;;;;355717;148;859099;-59
2021/06/23 01:35:09;;;;;;;10.92;3.05;;;;;;;;;;358764;145;857386;-58
2021/06/23 01:36:12;;;;;;;7.14;2.74;;;;;;;;;;350158;148;857186;-59
2021/06/23 01:37:13;;;;;;;10.02;3.26;;;;;;;;;;355750;149;857582;-59
2021/06/23 01:38:15;;;;;;;12.44;2.81;;;;;;;;;;359183;146;858500;-59
2021/06/23 01:39:16;;;;;;;11.25;2.96;;;;;;;;;;349619;149;857431;-60
2021/06/23 01:40:18;;;;;;;12.54;2.95;;;;;;;;;;357160;148;864906;-60
2021/06/23 01:41:20;;;;;;;19.06;3.27;;;;;;;;;;358330;147;857189;-59
2021/06/23 01:42:22;;;;;;;9.31;3.17;;;;;;;;;;353794;148;857188;-59
2021/06/23 01:43:23;;;;;;;11.27;3.06;;;;;;;;;;358945;147;857499;-59
2021/06/23 01:44:26;;;;;;;9.44;2.71;;;;;;;;;;359371;148;857883;-59
2021/06/23 01:45:28;;;;;;;10.08;3.46;;;;;;;;;;359619;147;866509;-59
2021/06/23 01:46:30;;;;;;;14.95;3.44;;;;;;;;;;359758;148;857100;-59
2021/06/23 01:47:32;;;;;;;13.44;3.29;;;;;;;;;;358237;148;857168;-59
2021/06/23 01:48:34;;;;;;;14.02;3.68;;;;;;;;;;357338;147;857295;-58
2021/06/23 01:49:35;;;;;;;11.41;2.84;;;;;;;;;;357790;150;857344;-59
2021/06/23 01:50:39;;;;;;;10.88;2.99;;;;;;;;;;359273;148;857409;-60
2021/06/23 01:51:40;;;;;;;10.49;2.89;;;;;;;;;;358773;147;857339;-59
2021/06/23 01:52:42;;;;;;;13.48;3.37;;;;;;;;;;356770;147;864982;-59
2021/06/23 01:53:44;;;;;;;11.51;3.41;;;;;;;;;;356956;147;857478;-59
2021/06/23 01:54:45;;;;;;;10.43;3.08;;;;;;;;;;358301;147;857483;-60
2021/06/23 01:55:48;;;;;;;10.00;2.92;;;;;;;;;;359233;147;866614;-60
2021/06/23 01:56:50;;;;;;;9.77;3.37;;;;;;;;;;363868;147;857312;-59
2021/06/23 01:57:51;;;;;;;17.22;3.47;;;;;;;;;;359634;147;857203;-59
2021/06/23 01:58:53;;;;;;;11.28;3.61;;;;;;;;;;356853;147;859108;-59
2021/06/23 01:59:54;;;;;;;16.05;3.95;;;;;;;;;;357243;147;859123;-59
2021/06/23 02:00:58;;;;;;;13.01;3.66;;;;;;;;;;360728;147;857512;-60
2021/06/23 02:02:08;;;;;;;10.32;3.04;;;;;;;;;;358124;147;866410;-60
2021/06/23 02:03:12;;;;;;;7.55;2.75;;;;;;;;;;355194;147;857263;-58
2021/06/23 02:04:18;;;;;;;12.46;3.27;;;;;;;;;;356431;147;864660;-60
2021/06/23 02:05:31;;;;;;;10.86;3.06;;;;;;;;;;356372;147;858187;-60
2021/06/23 02:06:42;;;;;;;13.27;3.33;;;;;;;;;;359132;147;858087;-60
2021/06/23 02:07:46;;;;;;;9.27;2.97;;;;;;;;;;355466;147;858853;-59
2021/06/23 02:08:49;;;;;;;10.75;3.04;;;;;;;;;;358083;147;857335;-59
2021/06/23 02:09:56;;;;;;;12.47;3.09;;;;;;;;;;358177;147;857800;-59
2021/06/23 02:11:08;;;;;;;12.08;3.14;;;;;;;;;;359005;147;858580;-59
2021/06/23 02:12:15;;;;;;;9.99;3.01;;;;;;;;;;357245;147;857290;-60
2021/06/23 02:13:30;;;;;;;11.06;3.43;;;;;;;;;;357354;147;860593;-59
2021/06/23 02:14:34;;;;;;;8.99;2.68;;;;;;;;;;355908;147;859320;-59
2021/06/23 02:15:36;;;;;;;14.21;2.83;;;;;;;;;;357378;147;858910;-59
2021/06/23 02:16:37;;;;;;;10.38;2.79;;;;;;;;;;355333;150;865787;-59
2021/06/23 02:17:40;;;;;;;12.24;3.25;;;;;;;;;;353654;147;864846;-59
2021/06/23 02:18:41;;;;;;;8.32;2.64;;;;;;;;;;362542;147;857826;-59
2021/06/23 02:19:47;;;;;;;9.50;3.29;;;;;;;;;;359152;147;857814;-59
2021/06/23 02:20:50;;;;;;;12.63;3.66;;;;;;;;;;355017;147;856585;-59
2021/06/23 02:21:52;;;;;;;9.09;2.59;;;;;;;;;;357618;150;858887;-58
2021/06/23 02:22:54;;;;;;;9.86;3.44;;;;;;;;;;357889;147;857928;-59
2021/06/23 02:23:55;;;;;;;7.82;2.67;;;;;;;;;;355420;147;864702;-59
2021/06/23 02:25:05;;;;;;;8.78;2.71;;;;;;;;;;356349;150;857439;-59
2021/06/23 02:26:08;;;;;;;10.58;2.84;;;;;;;;;;355934;150;864859;-59
2021/06/23 02:27:10;;;;;;;12.20;3.41;;;;;;;;;;361017;147;857330;-59
2021/06/23 02:28:12;;;;;;;13.39;3.05;;;;;;;;;;356315;146;859824;-59
2021/06/23 02:29:13;;;;;;;11.05;3.43;;;;;;;;;;357619;149;857796;-59
2021/06/23 02:30:17;;;;;;;9.78;2.90;;;;;;;;;;359155;147;857322;-58
2021/06/23 02:31:19;;;;;;;12.73;3.60;;;;;;;;;;358289;147;858860;-57
2021/06/23 02:32:22;;;;;;;12.53;3.03;;;;;;;;;;356990;150;859154;-59
2021/06/23 02:33:24;;;;;;;15.43;3.33;;;;;;;;;;358801;150;865142;-58
2021/06/23 02:34:25;;;;;;;7.71;2.76;;;;;;;;;;356255;147;858267;-57
2021/06/23 02:35:27;;;;;;;8.68;2.81;;;;;;;;;;356136;150;858308;-58
2021/06/23 02:36:30;;;;;;;9.38;3.57;;;;;;;;;;355029;150;857339;-59
2021/06/23 02:37:32;;;;;;;7.91;2.75;;;;;;;;;;358059;147;859792;-58
2021/06/23 02:38:34;;;;;;;9.73;3.22;;;;;;;;;;356151;147;866523;-58
2021/06/23 02:39:35;;;;;;;9.09;2.72;;;;;;;;;;357252;148;858641;-58
2021/06/23 02:40:39;;;;;;;9.22;2.96;;;;;;;;;;358477;147;858798;-58
2021/06/23 02:41:40;;;;;;;9.10;2.99;;;;;;;;;;357311;147;857421;-58
2021/06/23 02:42:42;;;;;;;8.44;2.85;;;;;;;;;;356689;150;860838;-58
2021/06/23 02:43:44;;;;;;;12.54;3.57;;;;;;;;;;357736;150;859137;-58
2021/06/23 02:44:45;;;;;;;9.17;3.17;;;;;;;;;;360313;147;864019;-58
2021/06/23 02:45:47;;;;;;;10.60;2.89;;;;;;;;;;357479;148;857336;-58
2021/06/23 02:46:50;;;;;;;10.26;3.27;;;;;;;;;;357546;147;859041;-59
2021/06/23 02:47:51;;;;;;;11.97;2.66;;;;;;;;;;357545;147;857171;-59
2021/06/23 02:48:53;;;;;;;9.91;2.54;;;;;;;;;;358206;147;857946;-60
2021/06/23 02:49:54;;;;;;;8.54;2.86;;;;;;;;;;356890;147;859043;-59
2021/06/23 02:50:58;;;;;;;11.66;3.09;;;;;;;;;;356443;147;858727;-60
2021/06/23 02:52:00;;;;;;;12.32;3.02;;;;;;;;;;358474;147;865478;-58
2021/06/23 02:53:02;;;;;;;11.91;3.91;;;;;;;;;;356767;147;857223;-58
2021/06/23 02:54:04;;;;;;;14.28;2.81;;;;;;;;;;357758;146;858607;-57
2021/06/23 02:55:06;;;;;;;10.95;3.16;;;;;;;;;;357764;147;859364;-58
2021/06/23 02:56:09;;;;;;;10.91;2.94;;;;;;;;;;358307;150;863813;-58
2021/06/23 02:57:10;;;;;;;10.87;3.11;;;;;;;;;;359007;148;856798;-57
2021/06/23 02:58:12;;;;;;;11.04;3.21;;;;;;;;;;358528;147;856419;-58
2021/06/23 02:59:13;;;;;;;10.51;3.01;;;;;;;;;;355366;147;865093;-60
2021/06/23 03:00:16;;;;;;;7.43;3.15;;;;;;;;;;355692;150;857253;-59
2021/06/23 03:01:18;;;;;;;11.37;3.13;;;;;;;;;;357635;149;857327;-58
2021/06/23 03:02:20;;;;;;;9.36;2.99;;;;;;;;;;358824;147;859115;-58
2021/06/23 03:03:21;;;;;;;16.79;3.38;;;;;;;;;;357827;146;864657;-57
2021/06/23 03:04:23;;;;;;;10.84;2.83;;;;;;;;;;358419;147;864986;-59
2021/06/23 03:05:24;;;;;;;7.43;2.64;;;;;;;;;;358280;147;857346;-58
2021/06/23 03:06:26;;;;;;;11.82;3.16;;;;;;;;;;358320;150;857247;-58
2021/06/23 03:07:28;;;;;;;9.39;3.03;;;;;;;;;;352799;151;866642;-58
2021/06/23 03:08:29;;;;;;;10.05;3.19;;;;;;;;;;358281;150;858905;-62
2021/06/23 03:09:31;;;;;;;11.92;2.60;;;;;;;;;;355575;147;864856;-58
2021/06/23 03:10:33;;;;;;;9.55;2.69;;;;;;;;;;354024;147;858284;-59
2021/06/23 03:11:35;;;;;;;11.67;3.21;;;;;;;;;;353804;147;859916;-59
2021/06/23 03:12:36;;;;;;;7.95;2.93;;;;;;;;;;356669;147;857274;-61
2021/06/23 03:13:38;;;;;;;9.46;2.84;;;;;;;;;;356304;147;857225;-59
2021/06/23 03:14:40;;;;;;;10.04;3.15;;;;;;;;;;358688;150;857412;-59
2021/06/23 03:15:41;;;;;;;10.47;2.71;;;;;;;;;;360164;147;857357;-58
2021/06/23 03:16:43;;;;;;;8.49;2.54;;;;;;;;;;357308;150;866601;-59
2021/06/23 03:17:45;;;;;;;13.21;2.77;;;;;;;;;;355072;150;866784;-58
2021/06/23 03:18:46;;;;;;;6.40;3.26;;;;;;;;;;357834;148;859035;-59
2021/06/23 03:19:48;;;;;;;11.96;2.92;;;;;;;;;;359569;147;857162;-58
2021/06/23 03:20:49;;;;;;;11.06;2.89;;;;;;;;;;358512;148;858887;-58
2021/06/23 03:21:51;;;;;;;10.65;3.18;;;;;;;;;;358948;147;865160;-58
2021/06/23 03:22:53;;;;;;;8.09;2.75;;;;;;;;;;357837;147;866655;-58
2021/06/23 03:23:54;;;;;;;13.67;3.64;;;;;;;;;;359719;148;858629;-58
2021/06/23 03:24:56;;;;;;;12.48;3.24;;;;;;;;;;359640;150;858720;-60
2021/06/23 03:25:58;;;;;;;11.69;3.16;;;;;;;;;;356753;147;865498;-59
2021/06/23 03:26:59;;;;;;;9.94;3.21;;;;;;;;;;354608;147;857218;-58
2021/06/23 03:28:01;;;;;;;8.67;2.78;;;;;;;;;;352839;151;864713;-58
2021/06/23 03:29:21;;;;;;;9.03;2.98;;;;;;;;;;352442;149;857266;-58
2021/06/23 03:30:23;;;;;;;11.61;3.19;;;;;;;;;;353824;149;857859;-58
2021/06/23 03:31:25;;;;;;;7.72;2.54;;;;;;;;;;356761;148;857377;-58
2021/06/23 03:32:27;;;;;;;8.65;2.90;;;;;;;;;;355269;147;859871;-58
2021/06/23 03:33:28;;;;;;;10.44;2.91;;;;;;;;;;357790;147;857301;-58
2021/06/23 03:34:30;;;;;;;11.84;2.99;;;;;;;;;;356318;148;857182;-58
2021/06/23 03:35:31;;;;;;;8.46;2.86;;;;;;;;;;353917;147;859343;-58
2021/06/23 03:36:33;;;;;;;9.73;3.18;;;;;;;;;;359946;147;857458;-59
2021/06/23 03:37:35;;;;;;;12.35;3.09;;;;;;;;;;359395;147;858004;-58
2021/06/23 03:38:36;;;;;;;12.59;3.56;;;;;;;;;;361177;146;859192;-58
2021/06/23 03:39:39;;;;;;;10.56;3.56;;;;;;;;;;362699;146;858687;-59
2021/06/23 03:40:41;;;;;;;10.04;3.84;;;;;;;;;;361500;146;857862;-58
2021/06/23 03:41:43;;;;;;;7.31;3.49;;;;;;;;;;363383;148;858210;-58
2021/06/23 03:42:44;;;;;;;9.36;3.22;;;;;;;;;;362510;146;858490;-58
2021/06/23 03:43:46;;;;;;;9.56;3.02;;;;;;;;;;362106;146;857893;-59
2021/06/23 03:44:47;;;;;;;12.13;3.27;;;;;;;;;;355305;146;864897;-58
2021/06/23 03:45:49;;;;;;;8.41;3.41;;;;;;;;;;358253;146;857495;-58
2021/06/23 03:46:52;;;;;;;11.47;3.35;;;;;;;;;;361581;146;857771;-59
2021/06/23 03:47:54;;;;;;;13.14;2.96;;;;;;;;;;364228;146;864769;-58
2021/06/23 03:48:57;;;;;;;9.83;3.41;;;;;;;;;;362753;146;857200;-59
2021/06/23 03:49:58;;;;;;;13.06;3.29;;;;;;;;;;361607;146;859117;-58
2021/06/23 03:51:00;;;;;;;10.43;3.60;;;;;;;;;;360720;146;857184;-58
2021/06/23 03:52:02;;;;;;;7.76;2.91;;;;;;;;;;358657;147;866466;-57
2021/06/23 03:53:04;;;;;;;9.13;3.11;;;;;;;;;;359075;146;860157;-57
2021/06/23 03:54:06;;;;;;;6.99;3.27;;;;;;;;;;363218;147;858643;-57
2021/06/23 03:55:08;;;;;;;11.14;3.25;;;;;;;;;;355332;146;865197;-58
2021/06/23 03:56:10;;;;;;;12.63;3.35;;;;;;;;;;360177;148;857322;-58
2021/06/23 03:57:11;;;;;;;13.39;3.56;;;;;;;;;;360930;148;857453;-58
2021/06/23 03:58:13;;;;;;;14.46;3.89;;;;;;;;;;362079;146;860168;-58
2021/06/23 03:59:14;;;;;;;11.39;3.02;;;;;;;;;;362066;148;858824;-58
2021/06/23 04:00:17;;;;;;;11.84;2.85;;;;;;;;;;363146;146;858725;-58
2021/06/23 04:01:19;;;;;;;8.71;3.15;;;;;;;;;;360447;146;859442;-59
2021/06/23 04:02:20;;;;;;;13.74;3.60;;;;;;;;;;357146;148;857726;-59
2021/06/23 04:03:22;;;;;;;8.21;2.62;;;;;;;;;;358947;148;857250;-57
2021/06/23 04:04:24;;;;;;;10.71;2.96;;;;;;;;;;361693;146;857318;-58
2021/06/23 04:05:25;;;;;;;11.99;3.03;;;;;;;;;;361982;146;858982;-59
2021/06/23 04:06:28;;;;;;;9.89;2.74;;;;;;;;;;361539;148;857599;-59
2021/06/23 04:07:30;;;;;;;12.98;3.16;;;;;;;;;;362627;148;857248;-58
2021/06/23 04:08:32;;;;;;;13.35;2.84;;;;;;;;;;360622;147;866775;-58
2021/06/23 04:09:33;;;;;;;9.59;2.77;;;;;;;;;;361493;146;865044;-58
2021/06/23 04:10:36;;;;;;;8.69;2.62;;;;;;;;;;360143;146;857439;-58
2021/06/23 04:11:38;;;;;;;12.52;3.29;;;;;;;;;;361658;146;857364;-58
2021/06/23 04:12:39;;;;;;;14.42;3.05;;;;;;;;;;359052;146;865792;-58
2021/06/23 04:13:41;;;;;;;9.74;2.82;;;;;;;;;;361794;148;860324;-58
2021/06/23 04:14:42;;;;;;;13.68;2.99;;;;;;;;;;361452;148;859371;-58
2021/06/23 04:15:44;;;;;;;8.40;2.65;;;;;;;;;;361758;146;857825;-57
2021/06/23 04:16:47;;;;;;;4.80;2.20;;;;;;;;;;359685;146;857455;-59
2021/06/23 04:17:48;;;;;;;11.11;2.44;;;;;;;;;;362276;148;859149;-59
2021/06/23 04:18:50;;;;;;;8.26;3.04;;;;;;;;;;359220;146;865935;-58
2021/06/23 04:19:51;;;;;;;13.44;2.72;;;;;;;;;;359827;147;858211;-58
2021/06/23 04:20:53;;;;;;;9.72;2.10;;;;;;;;;;362083;146;858613;-60
2021/06/23 04:21:55;;;;;;;9.83;2.66;;;;;;;;;;361009;147;865705;-57
2021/06/23 04:22:56;;;;;;;6.78;2.14;;;;;;;;;;358882;146;866374;-58
2021/06/23 04:23:58;;;;;;;6.69;2.12;;;;;;;;;;361212;147;860857;-59
2021/06/23 04:24:59;;;;;;;5.81;2.21;;;;;;;;;;360170;148;860158;-58
2021/06/23 04:26:01;;;;;;;9.45;2.59;;;;;;;;;;360427;146;857936;-58
2021/06/23 04:27:03;;;;;;;5.41;1.98;;;;;;;;;;356795;148;864765;-59
2021/06/23 04:28:05;;;;;;;10.81;2.39;;;;;;;;;;361173;148;857266;-58
2021/06/23 04:29:06;;;;;;;9.72;2.61;;;;;;;;;;360802;146;858083;-58
2021/06/23 04:30:09;;;;;;;10.06;3.17;;;;;;;;;;362083;146;857365;-60
2021/06/23 04:31:10;;;;;;;10.83;3.11;;;;;;;;;;362449;147;865263;-59
2021/06/23 04:32:12;;;;;;;7.84;2.44;;;;;;;;;;359582;148;858100;-60
2021/06/23 04:33:13;;;;;;;8.99;2.31;;;;;;;;;;354093;148;857370;-60
2021/06/23 04:34:15;;;;;;;15.43;2.44;;;;;;;;;;357963;150;857413;-60
2021/06/23 04:35:17;;;;;;;6.09;2.44;;;;;;;;;;360052;148;857354;-59
2021/06/23 04:36:18;;;;;;;13.81;2.55;;;;;;;;;;361991;146;866504;-58
2021/06/23 04:37:20;;;;;;;8.54;2.46;;;;;;;;;;362066;148;866439;-59
2021/06/23 04:38:22;;;;;;;8.76;2.64;;;;;;;;;;358714;148;860939;-59
2021/06/23 04:39:23;;;;;;;7.11;2.51;;;;;;;;;;362267;146;860371;-59
2021/06/23 04:40:25;;;;;;;8.39;2.36;;;;;;;;;;358236;146;859263;-57
2021/06/23 04:41:27;;;;;;;10.82;2.55;;;;;;;;;;362178;146;857535;-58
2021/06/23 04:42:29;;;;;;;11.55;2.61;;;;;;;;;;361411;148;857390;-58
2021/06/23 04:43:30;;;;;;;6.53;2.51;;;;;;;;;;362265;146;866032;-59
2021/06/23 04:44:32;;;;;;;12.16;2.49;;;;;;;;;;362995;148;859051;-58
2021/06/23 04:45:33;;;;;;;11.17;2.58;;;;;;;;;;361258;146;857766;-58
2021/06/23 04:46:35;;;;;;;11.36;2.66;;;;;;;;;;361938;146;857309;-58
2021/06/23 04:47:37;;;;;;;10.89;3.35;;;;;;;;;;359706;146;857270;-60
2021/06/23 04:48:39;;;;;;;6.49;2.51;;;;;;;;;;362546;146;866691;-59
2021/06/23 04:49:40;;;;;;;11.49;2.84;;;;;;;;;;362503;148;866500;-59
2021/06/23 04:50:43;;;;;;;13.70;3.03;;;;;;;;;;361811;146;857506;-59
2021/06/23 04:51:44;;;;;;;11.62;3.24;;;;;;;;;;363807;148;867779;-59
2021/06/23 04:52:46;;;;;;;10.45;3.12;;;;;;;;;;359811;148;857406;-57
2021/06/23 04:53:48;;;;;;;9.66;3.01;;;;;;;;;;362167;146;857422;-59
2021/06/23 04:54:49;;;;;;;12.14;3.38;;;;;;;;;;361708;146;857416;-58
2021/06/23 04:55:53;;;;;;;6.30;3.09;;;;;;;;;;363901;148;864751;-58
2021/06/23 04:56:54;;;;;;;6.53;2.76;;;;;;;;;;363650;146;864859;-59
2021/06/23 04:57:56;;;;;;;12.34;3.14;;;;;;;;;;359459;146;866057;-60
2021/06/23 04:58:59;;;;;;;13.14;3.43;;;;;;;;;;360705;148;857500;-60
2021/06/23 05:00:02;;;;;;;13.42;2.91;;;;;;;;;;359082;148;857464;-62
2021/06/23 05:01:04;;;;;;;10.26;3.13;;;;;;;;;;359683;146;858625;-60
2021/06/23 05:02:05;;;;;;;12.22;3.28;;;;;;;;;;359807;146;857374;-63
2021/06/23 05:03:07;;;;;;;12.63;3.19;;;;;;;;;;359544;148;865463;-60
2021/06/23 05:04:09;;;;;;;12.43;3.30;;;;;;;;;;361443;146;859027;-59
2021/06/23 05:05:11;;;;;;;11.68;3.04;;;;;;;;;;357777;148;858157;-59
2021/06/23 05:06:14;;;;;;;11.19;3.31;;;;;;;;;;358116;146;858086;-60
2021/06/23 05:07:16;;;;;;;8.91;3.31;;;;;;;;;;360050;146;866563;-59
2021/06/23 05:08:17;;;;;;;7.00;3.26;;;;;;;;;;363310;146;858012;-59
2021/06/23 05:09:19;;;;;;;12.69;3.79;;;;;;;;;;359609;146;859116;-59
2021/06/23 05:10:21;;;;;;;10.06;3.35;;;;;;;;;;359315;148;857254;-59
2021/06/23 05:11:22;;;;;;;13.71;3.28;;;;;;;;;;360172;146;857312;-58
2021/06/23 05:12:27;;;;;;;16.37;3.53;;;;;;;;;;358200;148;857411;-60
2021/06/23 05:13:27;;;;;;;7.26;3.06;;;;;;;;;;363440;148;857700;-59
2021/06/23 05:14:29;;;;;;;8.46;3.00;;;;;;;;;;359379;146;859814;-59
2021/06/23 05:15:31;;;;;;;11.17;3.42;;;;;;;;;;360038;148;857277;-59
2021/06/23 05:16:33;;;;;;;8.98;3.18;;;;;;;;;;357943;148;864919;-60
2021/06/23 05:17:35;;;;;;;7.34;3.69;;;;;;;;;;362056;148;857274;-59
2021/06/23 05:18:36;;;;;;;9.16;3.06;;;;;;;;;;356969;149;857278;-59
2021/06/23 05:19:38;;;;;;;10.61;3.10;;;;;;;;;;356204;148;858728;-59
2021/06/23 05:20:40;;;;;;;22.39;3.15;;;;;;;;;;363017;146;860374;-60
2021/06/23 05:21:42;;;;;;;7.94;2.91;;;;;;;;;;362392;146;859489;-60
2021/06/23 05:22:45;;;;;;;9.48;3.64;;;;;;;;;;354713;148;864850;-59
2021/06/23 05:23:47;;;;;;;10.87;3.48;;;;;;;;;;362077;148;857438;-59
2021/06/23 05:24:48;;;;;;;13.99;3.40;;;;;;;;;;361213;147;858310;-60
2021/06/23 05:25:50;;;;;;;9.69;2.92;;;;;;;;;;357697;146;857491;-59
2021/06/23 05:26:52;;;;;;;11.28;2.99;;;;;;;;;;363216;148;857231;-59
2021/06/23 05:27:54;;;;;;;13.41;2.86;;;;;;;;;;362796;148;857404;-59
2021/06/23 05:28:55;;;;;;;8.69;3.29;;;;;;;;;;360686;146;857329;-59
2021/06/23 05:29:57;;;;;;;10.64;2.80;;;;;;;;;;357414;150;858923;-60
2021/06/23 05:30:58;;;;;;;10.09;3.03;;;;;;;;;;359656;146;859022;-60
2021/06/23 05:32:00;;;;;;;12.59;3.73;;;;;;;;;;362206;146;864990;-59
2021/06/23 05:33:02;;;;;;;9.66;3.55;;;;;;;;;;358250;146;857416;-59
2021/06/23 05:34:03;;;;;;;11.81;3.15;;;;;;;;;;361437;148;865763;-59
2021/06/23 05:35:05;;;;;;;12.63;3.22;;;;;;;;;;363133;148;857431;-59
2021/06/23 05:36:07;;;;;;;7.90;3.07;;;;;;;;;;363275;146;857835;-60
2021/06/23 05:37:09;;;;;;;10.36;3.09;;;;;;;;;;364396;146;858777;-59
2021/06/23 05:38:10;;;;;;;11.94;2.57;;;;;;;;;;362596;147;857262;-59
2021/06/23 05:39:12;;;;;;;11.12;2.69;;;;;;;;;;361903;146;857478;-58
2021/06/23 05:40:14;;;;;;;12.59;2.93;;;;;;;;;;359198;148;859077;-58
2021/06/23 05:41:16;;;;;;;16.95;2.97;;;;;;;;;;359009;146;858370;-59
2021/06/23 05:42:17;;;;;;;11.49;2.90;;;;;;;;;;360862;148;858206;-59
2021/06/23 05:43:19;;;;;;;9.45;2.94;;;;;;;;;;358441;146;857246;-60
2021/06/23 05:44:20;;;;;;;8.05;2.96;;;;;;;;;;357937;148;857336;-59
2021/06/23 05:45:22;;;;;;;11.76;3.30;;;;;;;;;;362924;148;857210;-59
2021/06/23 05:46:26;;;;;;;7.68;2.64;;;;;;;;;;362076;146;857421;-59
2021/06/23 05:47:28;;;;;;;9.05;2.38;;;;;;;;;;366294;146;858310;-59
2021/06/23 05:48:29;;;;;;;7.93;2.68;;;;;;;;;;362701;148;865247;-59
2021/06/23 05:49:31;;;;;;;10.83;2.49;;;;;;;;;;362990;148;857284;-60
2021/06/23 05:50:34;;;;;;;10.68;2.64;;;;;;;;;;363634;146;864721;-59
2021/06/23 05:51:36;;;;;;;6.41;2.46;;;;;;;;;;361760;146;860609;-59
2021/06/23 05:52:38;;;;;;;12.15;2.44;;;;;;;;;;360225;148;865189;-59
2021/06/23 05:53:39;;;;;;;8.05;2.91;;;;;;;;;;361690;146;857716;-59
2021/06/23 05:54:41;;;;;;;8.97;2.46;;;;;;;;;;362520;148;857421;-58
2021/06/23 05:55:43;;;;;;;8.16;2.51;;;;;;;;;;359598;148;857353;-59
2021/06/23 05:56:45;;;;;;;7.71;2.24;;;;;;;;;;359557;146;857369;-58
2021/06/23 05:57:50;;;;;;;9.48;2.46;;;;;;;;;;361874;146;864842;-58
2021/06/23 05:58:52;;;;;;;7.89;2.28;;;;;;;;;;358180;148;857394;-58
2021/06/23 05:59:54;;;;;;;6.91;2.35;;;;;;;;;;362047;148;859897;-58
2021/06/23 06:00:56;;;;;;;9.63;2.37;;;;;;;;;;362718;146;865776;-58
2021/06/23 06:01:57;;;;;;;10.37;2.16;;;;;;;;;;364027;148;857318;-58
2021/06/23 06:02:59;;;;;;;5.15;1.85;;;;;;;;;;363286;146;865628;-59
2021/06/23 06:04:00;;;;;;;5.45;1.84;;;;;;;;;;362040;148;858217;-58